Terminal Aerodrome Forecast
Issued by NWS

Home | Current Version | Previous Version | Text Only | Print | Product List | Glossary On
Versions: 1 2 3 4 5 6 7 8 9 10 11 12 13 14
000
FTUS45 KRIW 260500
TAFJAC
TAF
KJAC 260521Z 2606/2706 20010KT P6SM VCTS SCT050CB BKN080
      TEMPO 2606/2609 6SM -SHRA BKN040
     FM261000 21011KT P6SM VCSH SCT022 BKN050
     FM262100 21017G27KT 5SM -SHRA SCT030 BKN050
     FM270400 19009KT 4SM -SHSN OVC022
      AMD LTD TO CLD VIS AND WIND=

USA.gov is the U.S. government's official web portal to all federal, state and local government web resources and services.